createdAt,value
2019-02-26T00:01:57.983Z,99.90
2019-02-26T00:04:29.784Z,99.90
2019-02-26T00:07:00.913Z,99.90
2019-02-26T00:09:34.675Z,99.90
2019-02-26T00:12:03.201Z,99.90
2019-02-26T00:14:33.425Z,99.90
2019-02-26T00:17:06.363Z,99.90
2019-02-26T00:19:35.752Z,99.90
2019-02-26T00:22:07.783Z,99.90
2019-02-26T00:24:39.753Z,99.90
2019-02-26T00:27:09.960Z,99.90
2019-02-26T00:29:40.120Z,99.90
2019-02-26T00:32:12.262Z,99.90
2019-02-26T00:34:42.184Z,99.90
2019-02-26T00:37:12.384Z,99.90
2019-02-26T00:39:42.723Z,99.90
2019-02-26T00:42:13.034Z,99.90
2019-02-26T00:44:43.255Z,99.90
2019-02-26T00:47:13.586Z,99.90
2019-02-26T00:49:44.236Z,99.90
2019-02-26T00:52:16.191Z,99.90
2019-02-26T00:54:46.397Z,99.90
2019-02-26T00:57:16.667Z,99.90
2019-02-26T00:59:48.104Z,99.90
2019-02-26T01:02:18.495Z,99.90
2019-02-26T01:04:50.885Z,99.90
2019-02-26T01:07:21.371Z,99.90
2019-02-26T01:09:54.612Z,99.90
2019-02-26T01:12:24.752Z,99.90
2019-02-26T01:14:55.066Z,99.90
2019-02-26T01:17:25.257Z,99.90
2019-02-26T01:19:56.479Z,99.90
2019-02-26T01:22:27.645Z,99.90
2019-02-26T01:24:58.473Z,99.90
2019-02-26T01:27:28.820Z,99.90
2019-02-26T01:30:00.428Z,99.90
2019-02-26T01:32:31.304Z,99.90
2019-02-26T01:35:03.419Z,99.90
2019-02-26T01:37:36.125Z,99.90
2019-02-26T01:40:09.417Z,99.90
2019-02-26T01:42:37.887Z,99.90
2019-02-26T01:45:09.371Z,99.90
2019-02-26T01:47:40.428Z,99.90
2019-02-26T01:50:15.751Z,99.90
2019-02-26T01:52:43.884Z,99.90
2019-02-26T01:55:16.002Z,99.90
2019-02-26T01:57:46.296Z,99.90
2019-02-26T02:00:17.564Z,99.90
2019-02-26T02:02:47.949Z,99.90
2019-02-26T02:05:19.688Z,99.90
2019-02-26T02:07:51.824Z,99.90
2019-02-26T02:10:22.425Z,99.90
2019-02-26T02:12:55.242Z,99.90
2019-02-26T02:15:24.480Z,99.90
2019-02-26T02:17:56.691Z,99.90
2019-02-26T02:20:26.874Z,99.90
2019-02-26T02:22:58.166Z,99.90
2019-02-26T02:25:33.248Z,99.90
2019-02-26T02:28:02.810Z,99.90
2019-02-26T02:30:38.869Z,99.90
2019-02-26T02:33:07.911Z,99.90
2019-02-26T02:35:38.184Z,99.90
2019-02-26T02:38:08.609Z,99.90
2019-02-26T02:40:40.228Z,99.90
2019-02-26T02:43:13.230Z,99.90
2019-02-26T02:45:43.068Z,99.90
2019-02-26T02:48:14.177Z,99.90
2019-02-26T02:50:44.587Z,99.90
2019-02-26T02:53:14.856Z,99.90
2019-02-26T02:55:46.966Z,99.90
2019-02-26T02:58:18.178Z,99.90
2019-02-26T03:00:51.613Z,99.90
2019-02-26T03:03:20.983Z,99.90
2019-02-26T03:05:51.301Z,99.90
2019-02-26T03:08:22.444Z,99.90
2019-02-26T03:10:53.287Z,99.90
2019-02-26T03:13:25.469Z,99.90
2019-02-26T03:15:56.645Z,99.90
2019-02-26T03:18:27.676Z,99.90
2019-02-26T03:20:59.985Z,99.90
2019-02-26T03:23:31.290Z,99.90
2019-02-26T03:26:01.703Z,99.90
2019-02-26T03:28:34.876Z,99.90
2019-02-26T03:31:03.692Z,99.90
2019-02-26T03:33:33.873Z,99.90
2019-02-26T03:36:07.590Z,99.90
2019-02-26T03:38:36.056Z,99.90
2019-02-26T03:41:06.442Z,99.90
2019-02-26T03:43:39.234Z,99.90
2019-02-26T03:46:08.565Z,99.90
2019-02-26T03:48:38.868Z,99.90
2019-02-26T03:51:09.213Z,99.90
2019-02-26T03:53:41.651Z,99.90
2019-02-26T03:56:12.504Z,99.90
2019-02-26T03:58:43.771Z,99.90
2019-02-26T04:01:18.296Z,99.90
2019-02-26T04:03:46.166Z,99.90
2019-02-26T04:06:16.383Z,99.90
2019-02-26T04:08:48.578Z,99.90
2019-02-26T04:11:19.974Z,99.90
2019-02-26T04:13:52.273Z,99.90
2019-02-26T04:16:22.915Z,99.90
2019-02-26T04:18:53.151Z,99.90
2019-02-26T04:21:23.556Z,99.90
2019-02-26T04:23:54.063Z,99.90
2019-02-26T04:27:02.088Z,99.90
2019-02-26T04:29:52.912Z,99.90
2019-02-26T04:33:14.054Z,99.90
2019-02-26T04:36:23.055Z,99.90
2019-02-26T04:39:36.739Z,99.90
2019-02-26T04:42:29.061Z,99.90
2019-02-26T04:45:44.991Z,99.90
2019-02-26T04:48:26.274Z,99.90
2019-02-26T04:50:55.443Z,99.90
2019-02-26T04:53:28.647Z,99.90
2019-02-26T04:55:59.786Z,99.90
2019-02-26T04:58:30.379Z,99.90
2019-02-26T05:01:00.867Z,99.90
2019-02-26T05:03:31.356Z,99.90
2019-02-26T05:06:03.055Z,99.90
2019-02-26T05:08:37.111Z,99.90
2019-02-26T05:11:05.224Z,99.90
2019-02-26T05:13:35.596Z,99.90
2019-02-26T05:16:05.807Z,99.90
2019-02-26T05:18:35.822Z,99.90
2019-02-26T05:21:08.308Z,99.90
2019-02-26T05:23:37.904Z,99.90
2019-02-26T05:26:11.653Z,99.90
2019-02-26T05:28:41.819Z,99.90
2019-02-26T05:31:14.475Z,99.90
2019-02-26T05:33:46.331Z,99.90
2019-02-26T05:36:17.269Z,99.90
2019-02-26T05:38:49.277Z,99.90
2019-02-26T05:41:19.903Z,99.90
2019-02-26T05:43:55.208Z,99.90
2019-02-26T05:46:26.380Z,99.90
2019-02-26T05:48:54.302Z,99.90
2019-02-26T05:51:27.226Z,99.90
2019-02-26T05:53:56.434Z,99.90
2019-02-26T05:56:26.639Z,99.90
2019-02-26T05:58:57.089Z,99.90
2019-02-26T06:01:27.868Z,99.90
2019-02-26T06:03:58.158Z,99.90
2019-02-26T06:06:28.370Z,99.90
2019-02-26T06:08:59.849Z,99.90
2019-02-26T06:11:33.262Z,99.90
2019-02-26T06:14:06.713Z,99.90
2019-02-26T06:16:34.480Z,99.90
2019-02-26T06:19:08.298Z,99.90
2019-02-26T06:21:41.834Z,99.90
2019-02-26T06:24:09.688Z,99.90
2019-02-26T06:26:41.205Z,99.90
2019-02-26T06:29:11.763Z,99.90
2019-02-26T06:31:44.209Z,99.90
2019-02-26T06:34:16.179Z,99.90
2019-02-26T06:36:46.620Z,99.90
2019-02-26T06:39:20.211Z,99.90
2019-02-26T06:41:51.296Z,99.90
2019-02-26T06:44:21.683Z,99.90
2019-02-26T06:46:52.023Z,99.90
2019-02-26T06:49:24.432Z,99.90
2019-02-26T06:51:54.495Z,99.90
2019-02-26T06:54:26.624Z,99.90
2019-02-26T06:56:56.511Z,99.90
2019-02-26T06:59:33.801Z,99.90
2019-02-26T07:02:02.873Z,99.90
2019-02-26T07:04:33.076Z,99.90
2019-02-26T07:07:04.429Z,99.90
2019-02-26T07:09:36.860Z,99.90
2019-02-26T07:12:07.663Z,99.90
2019-02-26T07:14:37.956Z,99.90
2019-02-26T07:17:08.174Z,99.90
2019-02-26T07:19:38.501Z,99.90
2019-02-26T07:22:11.134Z,99.90
2019-02-26T07:24:41.785Z,99.90
2019-02-26T07:27:13.909Z,99.90
2019-02-26T07:29:45.607Z,99.90
2019-02-26T07:32:17.792Z,99.90
2019-02-26T07:34:51.658Z,99.90
2019-02-26T07:37:20.394Z,99.90
2019-02-26T07:39:51.597Z,99.90
2019-02-26T07:42:21.931Z,99.90
2019-02-26T07:44:52.199Z,99.90
2019-02-26T07:47:24.289Z,99.90
2019-02-26T07:49:56.489Z,99.90
2019-02-26T07:52:28.359Z,99.90
2019-02-26T07:54:58.615Z,99.90
2019-02-26T07:57:29.047Z,99.90
2019-02-26T07:59:59.254Z,99.90
2019-02-26T08:02:30.622Z,99.90
2019-02-26T08:05:01.601Z,99.90
2019-02-26T08:07:33.175Z,99.90
2019-02-26T08:10:03.635Z,99.90
2019-02-26T08:12:35.587Z,99.90
2019-02-26T08:15:08.570Z,99.90
2019-02-26T08:17:38.500Z,99.90
2019-02-26T08:20:12.329Z,99.90
2019-02-26T08:22:42.212Z,99.90
2019-02-26T08:25:13.356Z,99.90
2019-02-26T08:27:43.651Z,99.90
2019-02-26T08:30:18.668Z,99.90
2019-02-26T08:32:51.044Z,99.90
2019-02-26T08:35:20.322Z,99.90
2019-02-26T08:37:50.614Z,99.90
2019-02-26T08:40:20.600Z,99.90
2019-02-26T08:43:09.400Z,99.90
2019-02-26T08:45:39.554Z,99.90
2019-02-26T08:48:09.960Z,99.90
2019-02-26T08:50:42.250Z,99.90
2019-02-26T08:53:12.316Z,99.90
2019-02-26T08:55:42.510Z,99.90
2019-02-26T08:58:12.711Z,99.90
2019-02-26T09:00:42.946Z,99.90
2019-02-26T09:03:13.857Z,99.90
2019-02-26T09:05:45.308Z,99.90
2019-02-26T09:08:16.335Z,99.90
2019-02-26T09:10:48.635Z,99.90
2019-02-26T09:13:18.956Z,99.90
2019-02-26T09:15:49.434Z,99.90
2019-02-26T09:18:20.417Z,99.90
2019-02-26T09:20:51.720Z,99.90
2019-02-26T09:23:23.538Z,99.90
2019-02-26T09:25:56.621Z,99.90
2019-02-26T09:28:27.086Z,99.90
2019-02-26T09:31:01.013Z,99.90
2019-02-26T09:33:32.811Z,99.90
2019-02-26T09:36:01.484Z,99.90
2019-02-26T09:38:31.707Z,99.90
2019-02-26T09:41:01.996Z,99.90
2019-02-26T09:43:32.118Z,99.90
2019-02-26T09:46:04.024Z,99.90
2019-02-26T09:48:35.916Z,99.90
2019-02-26T09:51:07.594Z,99.90
2019-02-26T09:53:38.279Z,99.90
2019-02-26T09:56:08.324Z,99.90
2019-02-26T09:58:40.378Z,99.90
2019-02-26T10:01:10.979Z,99.90
2019-02-26T10:03:41.592Z,99.90
2019-02-26T10:06:13.621Z,99.90
2019-02-26T10:08:43.904Z,99.90
2019-02-26T10:11:16.101Z,99.90
2019-02-26T10:13:48.818Z,99.90
2019-02-26T10:16:18.006Z,99.90
2019-02-26T10:18:49.590Z,99.90
2019-02-26T10:21:20.545Z,99.90
2019-02-26T10:23:52.149Z,99.90
2019-02-26T10:26:26.156Z,98.90
2019-02-26T10:28:59.085Z,98.90
2019-02-26T10:31:27.445Z,98.50
2019-02-26T10:33:57.138Z,98.30
2019-02-26T10:36:30.408Z,95.30
2019-02-26T10:39:00.748Z,96.60
2019-02-26T10:41:30.308Z,99.10
2019-02-26T10:44:00.256Z,97.80
2019-02-26T10:46:32.135Z,94.90
2019-02-26T10:49:02.043Z,95.40
2019-02-26T10:51:31.993Z,95.20
2019-02-26T10:54:02.809Z,94.50
2019-02-26T10:56:38.621Z,92.50
2019-02-26T10:59:06.846Z,92.20
2019-02-26T11:01:37.175Z,90.30
2019-02-26T11:04:07.186Z,91.70
2019-02-26T11:06:41.180Z,90.70
2019-02-26T11:09:17.214Z,91.00
2019-02-26T11:11:44.071Z,91.30
2019-02-26T11:14:16.682Z,90.90
2019-02-26T11:16:45.844Z,89.90
2019-02-26T11:19:15.786Z,89.20
2019-02-26T11:21:47.454Z,88.20
2019-02-26T11:24:17.327Z,88.40
2019-02-26T11:26:47.239Z,85.80
2019-02-26T11:29:17.160Z,82.30
2019-02-26T11:31:49.190Z,81.50
2019-02-26T11:34:18.647Z,83.30
2019-02-26T11:36:48.911Z,86.00
2019-02-26T11:39:18.877Z,86.70
2019-02-26T11:41:50.642Z,81.60
2019-02-26T11:44:22.751Z,75.60
2019-02-26T11:46:53.842Z,67.80
2019-02-26T11:49:23.710Z,63.70
2019-02-26T11:51:53.739Z,59.90
2019-02-26T11:54:23.676Z,59.00
2019-02-26T11:56:53.600Z,57.20
2019-02-26T11:59:23.583Z,58.00
2019-02-26T12:01:54.235Z,59.10
2019-02-26T12:04:25.236Z,58.60
2019-02-26T12:06:55.893Z,58.40
2019-02-26T12:09:26.856Z,56.90
2019-02-26T12:11:58.515Z,57.10
2019-02-26T12:14:28.412Z,55.50
2019-02-26T12:16:58.376Z,55.90
2019-02-26T12:19:30.633Z,55.70
2019-02-26T12:22:01.306Z,57.20
2019-02-26T12:24:33.537Z,60.10
2019-02-26T12:27:03.123Z,58.80
2019-02-26T12:29:33.053Z,58.80
2019-02-26T12:32:04.728Z,54.60
2019-02-26T12:34:35.223Z,54.50
2019-02-26T12:39:37.781Z,55.70
2019-02-26T12:42:10.487Z,53.80
2019-02-26T12:44:42.501Z,52.30
2019-02-26T12:47:12.002Z,52.90
2019-02-26T12:49:45.065Z,53.50
2019-02-26T12:52:15.198Z,53.20
2019-02-26T12:54:45.912Z,51.90
2019-02-26T12:57:18.488Z,50.30
2019-02-26T12:59:47.427Z,53.90
2019-02-26T13:02:20.914Z,51.70
2019-02-26T13:04:51.615Z,51.00
2019-02-26T13:07:22.410Z,50.40
2019-02-26T13:09:55.979Z,49.10
2019-02-26T13:12:28.518Z,50.40
2019-02-26T13:15:02.291Z,51.10
2019-02-26T13:17:31.552Z,53.70
2019-02-26T13:20:01.398Z,50.30
2019-02-26T13:22:30.429Z,47.50
2019-02-26T13:25:03.676Z,47.40
2019-02-26T13:27:31.975Z,48.40
2019-02-26T13:30:01.912Z,47.90
2019-02-26T13:32:32.376Z,48.50
2019-02-26T13:35:07.273Z,51.30
2019-02-26T13:37:36.577Z,50.00
2019-02-26T13:40:10.341Z,50.40
2019-02-26T13:42:40.481Z,51.10
2019-02-26T13:45:12.832Z,53.10
2019-02-26T13:47:42.929Z,52.90
2019-02-26T13:50:16.798Z,53.10
2019-02-26T13:52:46.811Z,54.00
2019-02-26T13:55:16.877Z,54.50
2019-02-26T13:57:47.179Z,51.70
2019-02-26T14:00:25.970Z,51.50
2019-02-26T14:02:49.305Z,53.00
2019-02-26T14:05:19.495Z,52.20
2019-02-26T14:07:49.575Z,50.60
2019-02-26T14:10:19.734Z,50.20
2019-02-26T14:12:49.962Z,51.00
2019-02-26T14:15:21.921Z,50.60
2019-02-26T14:17:52.127Z,51.20
2019-02-26T14:20:22.095Z,49.70
2019-02-26T14:22:52.244Z,50.30
2019-02-26T14:25:22.283Z,50.80
2019-02-26T14:27:52.208Z,50.40
2019-02-26T14:30:22.464Z,51.10
2019-02-26T14:32:52.624Z,52.10
2019-02-26T14:35:22.517Z,53.40
2019-02-26T14:37:52.547Z,54.40
2019-02-26T14:40:22.996Z,55.10
2019-02-26T14:42:52.968Z,55.50
2019-02-26T14:45:22.868Z,56.50
2019-02-26T14:47:52.855Z,55.90
2019-02-26T14:50:23.238Z,57.90
2019-02-26T14:52:53.297Z,58.90
2019-02-26T14:55:23.669Z,58.30
2019-02-26T14:57:54.148Z,58.20
2019-02-26T15:00:26.743Z,58.60
2019-02-26T15:02:57.380Z,57.50
2019-02-26T15:05:27.981Z,56.90
2019-02-26T15:07:58.211Z,57.40
2019-02-26T15:10:28.151Z,57.50
2019-02-26T15:12:58.347Z,57.70
2019-02-26T15:15:28.220Z,57.30
2019-02-26T15:17:58.112Z,57.20
2019-02-26T15:20:28.088Z,57.40
2019-02-26T15:22:58.040Z,57.10
2019-02-26T15:25:28.034Z,56.40
2019-02-26T15:28:04.707Z,56.40
2019-02-26T15:30:29.777Z,56.70
2019-02-26T15:32:59.721Z,57.30
2019-02-26T15:35:29.764Z,57.70
2019-02-26T15:37:59.803Z,58.40
2019-02-26T15:40:29.750Z,59.80
2019-02-26T15:42:59.611Z,59.10
2019-02-26T15:45:29.678Z,58.90
2019-02-26T15:48:03.719Z,60.10
2019-02-26T15:50:31.385Z,60.10
2019-02-26T15:53:01.340Z,60.50
2019-02-26T15:55:31.481Z,62.00
2019-02-26T15:58:04.001Z,62.10
2019-02-26T16:00:33.273Z,62.00
2019-02-26T16:03:03.327Z,63.30
2019-02-26T16:05:33.653Z,62.30
2019-02-26T16:08:03.541Z,64.00
2019-02-26T16:10:33.563Z,63.80
2019-02-26T16:13:06.619Z,64.20
2019-02-26T16:15:37.238Z,64.70
2019-02-26T16:18:07.438Z,66.50
2019-02-26T16:20:37.528Z,65.90
2019-02-26T16:23:07.527Z,65.40
2019-02-26T16:25:37.552Z,65.80
2019-02-26T16:28:07.461Z,66.10
2019-02-26T16:30:37.579Z,66.50
2019-02-26T16:33:07.608Z,66.40
2019-02-26T16:35:37.487Z,66.70
2019-02-26T16:38:07.544Z,67.00
2019-02-26T16:40:37.579Z,67.10
2019-02-26T16:43:07.828Z,67.80
2019-02-26T16:45:37.924Z,68.20
2019-02-26T16:48:08.172Z,68.90
2019-02-26T16:50:38.428Z,68.50
2019-02-26T16:53:08.888Z,70.50
2019-02-26T16:55:38.940Z,71.50
2019-02-26T16:58:09.087Z,71.80
2019-02-26T17:00:39.171Z,72.10
2019-02-26T17:03:09.218Z,72.20
2019-02-26T17:05:40.792Z,73.10
2019-02-26T17:08:11.089Z,74.40
2019-02-26T17:10:41.224Z,75.50
2019-02-26T17:13:11.316Z,77.10
2019-02-26T17:15:41.225Z,78.40
2019-02-26T17:18:11.263Z,80.20
2019-02-26T17:20:41.262Z,80.80
2019-02-26T17:23:13.610Z,85.60
2019-02-26T17:25:42.770Z,85.30
2019-02-26T17:28:12.932Z,83.70
2019-02-26T17:30:42.987Z,81.30
2019-02-26T17:33:14.557Z,81.30
2019-02-26T17:35:44.500Z,79.80
2019-02-26T17:38:15.471Z,80.00
2019-02-26T17:40:45.978Z,80.20
2019-02-26T17:43:15.967Z,80.10
2019-02-26T17:45:47.778Z,80.10
2019-02-26T17:48:17.716Z,80.20
2019-02-26T17:50:48.175Z,79.90
2019-02-26T17:53:18.620Z,80.20
2019-02-26T17:55:48.773Z,80.00
2019-02-26T17:58:19.268Z,82.00
2019-02-26T18:00:53.683Z,83.70
2019-02-26T18:03:25.638Z,82.90
2019-02-26T18:05:55.795Z,81.30
2019-02-26T18:08:25.964Z,81.20
2019-02-26T18:10:56.295Z,82.50
2019-02-26T18:13:27.003Z,82.60
2019-02-26T18:15:59.128Z,83.10
2019-02-26T18:18:29.823Z,84.10
2019-02-26T18:21:00.235Z,85.10
2019-02-26T18:23:30.686Z,83.80
2019-02-26T18:26:00.911Z,83.50
2019-02-26T18:28:31.199Z,83.40
2019-02-26T18:31:01.142Z,84.00
2019-02-26T18:33:35.579Z,84.40
2019-02-26T18:36:03.798Z,84.30
2019-02-26T18:38:33.728Z,84.70
2019-02-26T18:41:03.669Z,83.70
2019-02-26T18:43:33.578Z,84.70
2019-02-26T18:46:03.760Z,84.60
2019-02-26T18:48:33.813Z,84.30
2019-02-26T18:51:03.733Z,84.20
2019-02-26T18:53:33.748Z,85.20
2019-02-26T18:56:04.314Z,85.20
2019-02-26T18:58:34.808Z,86.30
2019-02-26T19:01:04.945Z,87.40
2019-02-26T19:03:35.150Z,87.00
2019-02-26T19:06:05.324Z,87.10
2019-02-26T19:08:38.913Z,88.10
2019-02-26T19:11:07.296Z,89.30
2019-02-26T19:13:37.176Z,90.10
2019-02-26T19:16:07.137Z,90.10
2019-02-26T19:18:38.496Z,90.40
2019-02-26T19:21:08.533Z,90.50
2019-02-26T19:23:38.435Z,90.30
2019-02-26T19:26:08.376Z,90.80
2019-02-26T19:28:38.297Z,91.30
2019-02-26T19:31:09.832Z,90.60
2019-02-26T19:33:39.984Z,91.10
2019-02-26T19:36:10.670Z,91.90
2019-02-26T19:38:41.512Z,90.60
2019-02-26T19:41:13.187Z,90.90
2019-02-26T19:43:43.206Z,91.80
2019-02-26T19:46:16.841Z,91.50
2019-02-26T19:48:45.087Z,90.70
2019-02-26T19:51:17.148Z,90.30
2019-02-26T19:53:47.143Z,90.00
2019-02-26T19:56:23.242Z,91.10
2019-02-26T19:58:51.130Z,91.40
2019-02-26T20:01:25.579Z,91.30
2019-02-26T20:03:52.695Z,92.40
2019-02-26T20:06:23.592Z,91.70
2019-02-26T20:08:54.313Z,92.50
2019-02-26T20:11:24.466Z,92.20
2019-02-26T20:13:54.427Z,91.90
2019-02-26T20:16:27.590Z,92.20
2019-02-26T20:18:56.701Z,92.20
2019-02-26T20:21:27.949Z,92.10
2019-02-26T20:23:58.130Z,91.70
2019-02-26T20:26:28.141Z,92.30
2019-02-26T20:28:58.058Z,92.70
2019-02-26T20:31:28.939Z,93.10
2019-02-26T20:33:59.421Z,93.20
2019-02-26T20:36:29.425Z,94.30
2019-02-26T20:38:59.401Z,94.00
2019-02-26T20:41:29.347Z,93.80
2019-02-26T20:43:59.236Z,93.20
2019-02-26T20:46:29.368Z,93.10
2019-02-26T20:48:59.282Z,94.20
2019-02-26T20:51:29.216Z,94.60
2019-02-26T20:53:59.131Z,94.70
2019-02-26T20:56:30.984Z,94.70
2019-02-26T20:59:00.761Z,94.30
2019-02-26T21:01:32.481Z,94.40
2019-02-26T21:04:02.386Z,95.20
2019-02-26T21:06:32.282Z,95.60
2019-02-26T21:09:06.787Z,96.40
2019-02-26T21:11:33.841Z,95.00
2019-02-26T21:14:07.600Z,94.50
2019-02-26T21:16:35.733Z,93.90
2019-02-26T21:19:06.676Z,92.80
2019-02-26T21:21:36.567Z,92.40
2019-02-26T21:24:06.462Z,91.30
2019-02-26T21:26:36.438Z,91.60
2019-02-26T21:29:06.417Z,91.00
2019-02-26T21:31:36.476Z,92.20
2019-02-26T21:34:06.345Z,91.80
2019-02-26T21:36:36.234Z,91.90
2019-02-26T21:39:10.910Z,92.40
2019-02-26T21:41:39.155Z,92.00
2019-02-26T21:44:09.513Z,91.90
2019-02-26T21:46:39.441Z,91.90
2019-02-26T21:49:09.852Z,92.10
2019-02-26T21:51:40.435Z,93.10
2019-02-26T21:54:10.428Z,92.70
2019-02-26T21:56:40.331Z,92.80
2019-02-26T21:59:10.203Z,93.00
2019-02-26T22:01:41.355Z,92.50
2019-02-26T22:04:11.772Z,92.40
2019-02-26T22:06:44.398Z,91.60
2019-02-26T22:09:13.235Z,91.60
2019-02-26T22:11:43.441Z,92.10
2019-02-26T22:14:14.997Z,90.70
2019-02-26T22:16:44.872Z,90.50
2019-02-26T22:19:14.739Z,91.30
2019-02-26T22:21:52.752Z,92.20
2019-02-26T22:24:22.886Z,91.90
2019-02-26T22:27:11.770Z,90.40
2019-02-26T22:29:41.644Z,90.50
2019-02-26T22:32:11.532Z,91.70
2019-02-26T22:34:41.443Z,91.90
2019-02-26T22:37:11.327Z,93.10
2019-02-26T22:39:41.218Z,92.60
2019-02-26T22:42:12.078Z,93.30
2019-02-26T22:44:41.975Z,94.20
2019-02-26T22:47:13.556Z,94.40
2019-02-26T22:49:43.515Z,94.20
2019-02-26T22:52:13.387Z,94.40
2019-02-26T22:54:43.738Z,94.30
2019-02-26T22:57:14.026Z,95.00
2019-02-26T22:59:43.897Z,95.10
2019-02-26T23:02:13.992Z,95.70
2019-02-26T23:04:44.012Z,96.30
2019-02-26T23:07:14.648Z,97.00
2019-02-26T23:09:44.755Z,97.50
2019-02-26T23:12:15.947Z,98.30
2019-02-26T23:14:46.210Z,98.10
2019-02-26T23:17:16.310Z,97.50
2019-02-26T23:19:46.271Z,98.20
2019-02-26T23:22:16.653Z,98.40
2019-02-26T23:24:47.034Z,97.10
2019-02-26T23:27:17.031Z,97.30
2019-02-26T23:29:47.359Z,97.20
2019-02-26T23:32:17.783Z,96.90
2019-02-26T23:35:04.045Z,96.90
2019-02-26T23:37:34.718Z,98.90
2019-02-26T23:40:06.491Z,97.00
2019-02-26T23:42:38.554Z,97.20
2019-02-26T23:45:08.168Z,98.80
2019-02-26T23:47:38.084Z,99.90
2019-02-26T23:50:08.305Z,99.90
2019-02-26T23:52:38.267Z,99.90
2019-02-26T23:55:08.339Z,99.90
2019-02-26T23:57:38.228Z,99.90
